sensor_id;sensor_type;location;lat;lon;timestamp;P1;durP1;ratioP1;P2;durP2;ratioP2
47009;SDS011;59230;54.164;-3.124;2023-07-31T00:00:12;55.22;;;7.85;;
47009;SDS011;59230;54.164;-3.124;2023-07-31T00:02:38;64.20;;;7.93;;
47009;SDS011;59230;54.164;-3.124;2023-07-31T00:05:03;57.75;;;7.88;;
47009;SDS011;59230;54.164;-3.124;2023-07-31T00:07:29;55.40;;;8.07;;
47009;SDS011;59230;54.164;-3.124;2023-07-31T00:09:55;51.00;;;7.10;;
47009;SDS011;59230;54.164;-3.124;2023-07-31T00:12:21;60.67;;;8.57;;
47009;SDS011;59230;54.164;-3.124;2023-07-31T00:14:47;50.65;;;6.80;;
47009;SDS011;59230;54.164;-3.124;2023-07-31T00:17:12;52.95;;;7.63;;
47009;SDS011;59230;54.164;-3.124;2023-07-31T00:19:38;52.90;;;7.97;;
47009;SDS011;59230;54.164;-3.124;2023-07-31T00:22:03;58.55;;;7.47;;
47009;SDS011;59230;54.164;-3.124;2023-07-31T00:24:29;47.80;;;7.20;;
47009;SDS011;59230;54.164;-3.124;2023-07-31T00:26:54;62.88;;;7.82;;
47009;SDS011;59230;54.164;-3.124;2023-07-31T00:29:20;57.95;;;7.65;;
47009;SDS011;59230;54.164;-3.124;2023-07-31T00:31:45;53.30;;;7.35;;
47009;SDS011;59230;54.164;-3.124;2023-07-31T00:34:10;49.20;;;6.72;;
47009;SDS011;59230;54.164;-3.124;2023-07-31T00:36:36;52.28;;;7.78;;
47009;SDS011;59230;54.164;-3.124;2023-07-31T00:39:01;51.17;;;7.00;;
47009;SDS011;59230;54.164;-3.124;2023-07-31T00:41:26;63.95;;;7.18;;
47009;SDS011;59230;54.164;-3.124;2023-07-31T00:43:52;49.92;;;7.25;;
47009;SDS011;59230;54.164;-3.124;2023-07-31T00:46:17;54.85;;;7.45;;
47009;SDS011;59230;54.164;-3.124;2023-07-31T00:48:43;59.88;;;7.68;;
47009;SDS011;59230;54.164;-3.124;2023-07-31T00:51:08;59.30;;;7.45;;
47009;SDS011;59230;54.164;-3.124;2023-07-31T00:53:34;55.72;;;7.32;;
47009;SDS011;59230;54.164;-3.124;2023-07-31T00:56:00;62.00;;;7.97;;
47009;SDS011;59230;54.164;-3.124;2023-07-31T00:58:25;59.70;;;7.35;;
47009;SDS011;59230;54.164;-3.124;2023-07-31T01:00:51;46.53;;;6.55;;
47009;SDS011;59230;54.164;-3.124;2023-07-31T01:03:16;52.28;;;6.30;;
47009;SDS011;59230;54.164;-3.124;2023-07-31T01:11:25;51.95;;;6.72;;
47009;SDS011;59230;54.164;-3.124;2023-07-31T01:13:53;53.72;;;6.85;;
47009;SDS011;59230;54.164;-3.124;2023-07-31T01:16:19;62.95;;;6.50;;
47009;SDS011;59230;54.164;-3.124;2023-07-31T01:18:44;44.20;;;7.10;;
47009;SDS011;59230;54.164;-3.124;2023-07-31T01:21:56;66.32;;;7.78;;
47009;SDS011;59230;54.164;-3.124;2023-07-31T01:26:58;49.75;;;7.20;;
47009;SDS011;59230;54.164;-3.124;2023-07-31T01:30:03;51.95;;;7.38;;
47009;SDS011;59230;54.164;-3.124;2023-07-31T01:32:35;50.65;;;6.90;;
47009;SDS011;59230;54.164;-3.124;2023-07-31T01:35:01;69.15;;;7.55;;
47009;SDS011;59230;54.164;-3.124;2023-07-31T01:37:28;50.08;;;7.00;;
47009;SDS011;59230;54.164;-3.124;2023-07-31T01:39:54;55.65;;;7.25;;
47009;SDS011;59230;54.164;-3.124;2023-07-31T01:42:20;48.38;;;7.00;;
47009;SDS011;59230;54.164;-3.124;2023-07-31T01:44:45;43.33;;;6.22;;
47009;SDS011;59230;54.164;-3.124;2023-07-31T01:47:11;45.35;;;7.32;;
47009;SDS011;59230;54.164;-3.124;2023-07-31T01:49:36;41.03;;;6.90;;
47009;SDS011;59230;54.164;-3.124;2023-07-31T01:52:01;57.78;;;7.45;;
47009;SDS011;59230;54.164;-3.124;2023-07-31T01:54:27;41.10;;;6.28;;
47009;SDS011;59230;54.164;-3.124;2023-07-31T01:56:54;61.30;;;7.30;;
47009;SDS011;59230;54.164;-3.124;2023-07-31T01:59:19;43.50;;;7.18;;
47009;SDS011;59230;54.164;-3.124;2023-07-31T02:01:45;55.53;;;7.70;;
47009;SDS011;59230;54.164;-3.124;2023-07-31T02:04:10;44.00;;;7.57;;
47009;SDS011;59230;54.164;-3.124;2023-07-31T02:06:35;57.50;;;8.05;;
47009;SDS011;59230;54.164;-3.124;2023-07-31T02:09:01;57.45;;;9.45;;
47009;SDS011;59230;54.164;-3.124;2023-07-31T02:11:26;47.33;;;8.07;;
47009;SDS011;59230;54.164;-3.124;2023-07-31T02:13:52;42.10;;;7.93;;
47009;SDS011;59230;54.164;-3.124;2023-07-31T02:16:17;47.55;;;8.82;;
47009;SDS011;59230;54.164;-3.124;2023-07-31T02:18:42;51.15;;;9.25;;
47009;SDS011;59230;54.164;-3.124;2023-07-31T02:21:08;55.70;;;8.32;;
47009;SDS011;59230;54.164;-3.124;2023-07-31T02:23:33;39.05;;;7.78;;
47009;SDS011;59230;54.164;-3.124;2023-07-31T02:25:59;54.35;;;8.55;;
47009;SDS011;59230;54.164;-3.124;2023-07-31T02:28:25;40.80;;;7.15;;
47009;SDS011;59230;54.164;-3.124;2023-07-31T02:30:50;33.05;;;7.10;;
47009;SDS011;59230;54.164;-3.124;2023-07-31T02:33:17;46.75;;;7.40;;
47009;SDS011;59230;54.164;-3.124;2023-07-31T02:35:42;48.15;;;7.15;;
47009;SDS011;59230;54.164;-3.124;2023-07-31T02:38:08;42.42;;;7.60;;
47009;SDS011;59230;54.164;-3.124;2023-07-31T02:40:33;57.55;;;7.40;;
47009;SDS011;59230;54.164;-3.124;2023-07-31T02:42:58;50.15;;;7.72;;
47009;SDS011;59230;54.164;-3.124;2023-07-31T02:45:24;33.58;;;6.28;;
47009;SDS011;59230;54.164;-3.124;2023-07-31T02:47:49;43.42;;;7.20;;
47009;SDS011;59230;54.164;-3.124;2023-07-31T02:50:15;49.72;;;7.38;;
47009;SDS011;59230;54.164;-3.124;2023-07-31T02:52:40;49.58;;;7.80;;
47009;SDS011;59230;54.164;-3.124;2023-07-31T02:55:06;42.65;;;8.07;;
47009;SDS011;59230;54.164;-3.124;2023-07-31T02:57:31;50.70;;;8.52;;
47009;SDS011;59230;54.164;-3.124;2023-07-31T02:59:57;40.58;;;7.65;;
47009;SDS011;59230;54.164;-3.124;2023-07-31T03:02:22;44.50;;;7.93;;
47009;SDS011;59230;54.164;-3.124;2023-07-31T03:04:48;40.97;;;6.88;;
47009;SDS011;59230;54.164;-3.124;2023-07-31T03:07:13;39.38;;;7.93;;
47009;SDS011;59230;54.164;-3.124;2023-07-31T03:09:38;41.60;;;7.70;;
47009;SDS011;59230;54.164;-3.124;2023-07-31T03:12:04;50.33;;;7.53;;
47009;SDS011;59230;54.164;-3.124;2023-07-31T03:14:29;40.67;;;9.13;;
47009;SDS011;59230;54.164;-3.124;2023-07-31T03:16:55;46.30;;;8.98;;
47009;SDS011;59230;54.164;-3.124;2023-07-31T03:19:21;47.47;;;8.90;;
47009;SDS011;59230;54.164;-3.124;2023-07-31T03:21:47;45.22;;;9.00;;
47009;SDS011;59230;54.164;-3.124;2023-07-31T03:24:12;42.55;;;8.63;;
47009;SDS011;59230;54.164;-3.124;2023-07-31T03:26:38;53.55;;;8.70;;
47009;SDS011;59230;54.164;-3.124;2023-07-31T03:29:06;41.55;;;6.97;;
47009;SDS011;59230;54.164;-3.124;2023-07-31T03:31:31;60.30;;;7.57;;
47009;SDS011;59230;54.164;-3.124;2023-07-31T03:33:57;51.00;;;7.38;;
47009;SDS011;59230;54.164;-3.124;2023-07-31T03:36:23;46.75;;;7.55;;
47009;SDS011;59230;54.164;-3.124;2023-07-31T03:38:48;45.53;;;7.80;;
47009;SDS011;59230;54.164;-3.124;2023-07-31T03:41:14;36.47;;;7.15;;
47009;SDS011;59230;54.164;-3.124;2023-07-31T03:43:39;42.83;;;7.57;;
47009;SDS011;59230;54.164;-3.124;2023-07-31T03:46:05;53.13;;;7.85;;
47009;SDS011;59230;54.164;-3.124;2023-07-31T03:48:30;41.80;;;7.90;;
47009;SDS011;59230;54.164;-3.124;2023-07-31T03:50:56;36.95;;;7.82;;
47009;SDS011;59230;54.164;-3.124;2023-07-31T03:53:21;53.50;;;7.45;;
47009;SDS011;59230;54.164;-3.124;2023-07-31T03:55:46;52.15;;;7.63;;
47009;SDS011;59230;54.164;-3.124;2023-07-31T03:58:12;24.40;;;5.82;;
47009;SDS011;59230;54.164;-3.124;2023-07-31T04:00:39;37.50;;;6.20;;
47009;SDS011;59230;54.164;-3.124;2023-07-31T04:03:05;34.20;;;6.38;;
47009;SDS011;59230;54.164;-3.124;2023-07-31T04:05:31;39.80;;;5.80;;
47009;SDS011;59230;54.164;-3.124;2023-07-31T04:07:57;34.67;;;5.85;;
47009;SDS011;59230;54.164;-3.124;2023-07-31T04:10:22;21.73;;;5.63;;
47009;SDS011;59230;54.164;-3.124;2023-07-31T04:12:48;32.28;;;6.32;;
47009;SDS011;59230;54.164;-3.124;2023-07-31T04:15:13;32.85;;;4.90;;
47009;SDS011;59230;54.164;-3.124;2023-07-31T04:17:39;36.00;;;6.05;;
47009;SDS011;59230;54.164;-3.124;2023-07-31T04:20:04;32.85;;;5.38;;
47009;SDS011;59230;54.164;-3.124;2023-07-31T04:22:30;38.47;;;5.68;;
47009;SDS011;59230;54.164;-3.124;2023-07-31T04:24:55;28.65;;;6.05;;
47009;SDS011;59230;54.164;-3.124;2023-07-31T04:27:21;37.30;;;5.68;;
47009;SDS011;59230;54.164;-3.124;2023-07-31T04:29:46;34.88;;;5.95;;
47009;SDS011;59230;54.164;-3.124;2023-07-31T04:32:12;35.47;;;5.32;;
47009;SDS011;59230;54.164;-3.124;2023-07-31T04:34:38;42.28;;;5.47;;
47009;SDS011;59230;54.164;-3.124;2023-07-31T04:37:03;42.78;;;6.38;;
47009;SDS011;59230;54.164;-3.124;2023-07-31T04:39:29;24.67;;;5.18;;
47009;SDS011;59230;54.164;-3.124;2023-07-31T04:41:54;42.33;;;5.72;;
47009;SDS011;59230;54.164;-3.124;2023-07-31T04:44:20;32.30;;;5.90;;
47009;SDS011;59230;54.164;-3.124;2023-07-31T04:46:45;38.63;;;6.07;;
47009;SDS011;59230;54.164;-3.124;2023-07-31T04:49:11;45.17;;;5.93;;
47009;SDS011;59230;54.164;-3.124;2023-07-31T04:51:37;47.28;;;6.35;;
47009;SDS011;59230;54.164;-3.124;2023-07-31T04:54:02;33.30;;;6.03;;
47009;SDS011;59230;54.164;-3.124;2023-07-31T04:56:28;36.50;;;6.07;;
47009;SDS011;59230;54.164;-3.124;2023-07-31T04:58:53;32.90;;;5.70;;
47009;SDS011;59230;54.164;-3.124;2023-07-31T05:01:19;32.75;;;5.65;;
47009;SDS011;59230;54.164;-3.124;2023-07-31T05:03:45;45.83;;;5.50;;
47009;SDS011;59230;54.164;-3.124;2023-07-31T05:06:10;37.58;;;4.97;;
47009;SDS011;59230;54.164;-3.124;2023-07-31T05:08:37;25.77;;;4.50;;
47009;SDS011;59230;54.164;-3.124;2023-07-31T05:11:02;35.60;;;4.85;;
47009;SDS011;59230;54.164;-3.124;2023-07-31T05:13:28;35.50;;;4.60;;
47009;SDS011;59230;54.164;-3.124;2023-07-31T05:15:53;29.15;;;4.20;;
47009;SDS011;59230;54.164;-3.124;2023-07-31T05:18:19;28.80;;;4.40;;
47009;SDS011;59230;54.164;-3.124;2023-07-31T05:20:44;23.63;;;3.60;;
47009;SDS011;59230;54.164;-3.124;2023-07-31T05:23:10;28.30;;;3.88;;
47009;SDS011;59230;54.164;-3.124;2023-07-31T05:25:35;26.65;;;3.70;;
47009;SDS011;59230;54.164;-3.124;2023-07-31T05:28:00;16.00;;;3.38;;
47009;SDS011;59230;54.164;-3.124;2023-07-31T05:30:26;25.63;;;3.80;;
47009;SDS011;59230;54.164;-3.124;2023-07-31T05:32:51;28.85;;;3.63;;
47009;SDS011;59230;54.164;-3.124;2023-07-31T05:35:17;27.73;;;3.83;;
47009;SDS011;59230;54.164;-3.124;2023-07-31T05:37:42;33.85;;;4.53;;
47009;SDS011;59230;54.164;-3.124;2023-07-31T05:40:08;27.77;;;3.80;;
47009;SDS011;59230;54.164;-3.124;2023-07-31T05:42:34;30.73;;;4.35;;
47009;SDS011;59230;54.164;-3.124;2023-07-31T05:45:00;25.70;;;4.18;;
47009;SDS011;59230;54.164;-3.124;2023-07-31T05:47:26;24.00;;;3.75;;
47009;SDS011;59230;54.164;-3.124;2023-07-31T05:49:51;31.13;;;3.88;;
47009;SDS011;59230;54.164;-3.124;2023-07-31T05:52:18;19.27;;;3.80;;
47009;SDS011;59230;54.164;-3.124;2023-07-31T05:54:44;33.15;;;4.80;;
47009;SDS011;59230;54.164;-3.124;2023-07-31T05:57:11;28.50;;;4.15;;
47009;SDS011;59230;54.164;-3.124;2023-07-31T05:59:36;33.50;;;5.15;;
47009;SDS011;59230;54.164;-3.124;2023-07-31T06:02:02;38.08;;;5.43;;
47009;SDS011;59230;54.164;-3.124;2023-07-31T06:04:27;38.50;;;6.00;;
47009;SDS011;59230;54.164;-3.124;2023-07-31T06:06:53;38.72;;;5.35;;
47009;SDS011;59230;54.164;-3.124;2023-07-31T06:09:19;38.97;;;5.95;;
47009;SDS011;59230;54.164;-3.124;2023-07-31T06:11:45;39.90;;;5.88;;
47009;SDS011;59230;54.164;-3.124;2023-07-31T06:14:10;35.03;;;5.15;;
47009;SDS011;59230;54.164;-3.124;2023-07-31T06:16:36;32.25;;;4.78;;
47009;SDS011;59230;54.164;-3.124;2023-07-31T06:19:01;31.25;;;5.53;;
47009;SDS011;59230;54.164;-3.124;2023-07-31T06:21:27;36.85;;;5.45;;
47009;SDS011;59230;54.164;-3.124;2023-07-31T06:23:52;25.50;;;4.90;;
47009;SDS011;59230;54.164;-3.124;2023-07-31T06:26:18;23.75;;;5.00;;
47009;SDS011;59230;54.164;-3.124;2023-07-31T06:28:43;29.73;;;5.00;;
47009;SDS011;59230;54.164;-3.124;2023-07-31T06:31:09;28.67;;;5.10;;
47009;SDS011;59230;54.164;-3.124;2023-07-31T06:33:35;36.17;;;5.13;;
47009;SDS011;59230;54.164;-3.124;2023-07-31T06:36:00;26.77;;;5.22;;
47009;SDS011;59230;54.164;-3.124;2023-07-31T06:38:26;24.55;;;4.60;;
47009;SDS011;59230;54.164;-3.124;2023-07-31T06:40:52;27.40;;;4.90;;
47009;SDS011;59230;54.164;-3.124;2023-07-31T06:43:18;27.67;;;4.82;;
47009;SDS011;59230;54.164;-3.124;2023-07-31T06:45:43;20.23;;;4.55;;
47009;SDS011;59230;54.164;-3.124;2023-07-31T06:48:09;22.15;;;4.13;;
47009;SDS011;59230;54.164;-3.124;2023-07-31T06:50:34;32.70;;;4.13;;
47009;SDS011;59230;54.164;-3.124;2023-07-31T06:53:00;24.25;;;4.00;;
47009;SDS011;59230;54.164;-3.124;2023-07-31T06:55:25;20.98;;;3.60;;
47009;SDS011;59230;54.164;-3.124;2023-07-31T06:57:52;15.50;;;3.75;;
47009;SDS011;59230;54.164;-3.124;2023-07-31T07:00:18;22.42;;;4.00;;
47009;SDS011;59230;54.164;-3.124;2023-07-31T07:02:44;18.88;;;3.55;;
47009;SDS011;59230;54.164;-3.124;2023-07-31T07:05:12;26.65;;;4.03;;
47009;SDS011;59230;54.164;-3.124;2023-07-31T07:07:38;17.70;;;3.17;;
47009;SDS011;59230;54.164;-3.124;2023-07-31T07:10:03;15.48;;;2.80;;
47009;SDS011;59230;54.164;-3.124;2023-07-31T07:12:30;24.83;;;3.65;;
47009;SDS011;59230;54.164;-3.124;2023-07-31T07:14:56;26.73;;;2.90;;
47009;SDS011;59230;54.164;-3.124;2023-07-31T07:17:22;13.60;;;2.80;;
47009;SDS011;59230;54.164;-3.124;2023-07-31T07:19:48;21.17;;;2.80;;
47009;SDS011;59230;54.164;-3.124;2023-07-31T07:22:14;22.73;;;3.08;;
47009;SDS011;59230;54.164;-3.124;2023-07-31T07:24:39;29.65;;;2.80;;
47009;SDS011;59230;54.164;-3.124;2023-07-31T07:27:05;42.00;;;4.07;;
47009;SDS011;59230;54.164;-3.124;2023-07-31T07:29:30;27.85;;;3.10;;
47009;SDS011;59230;54.164;-3.124;2023-07-31T07:31:56;17.75;;;2.83;;
47009;SDS011;59230;54.164;-3.124;2023-07-31T07:34:28;18.15;;;2.45;;
47009;SDS011;59230;54.164;-3.124;2023-07-31T07:36:53;20.42;;;3.85;;
47009;SDS011;59230;54.164;-3.124;2023-07-31T07:39:19;23.00;;;3.35;;
47009;SDS011;59230;54.164;-3.124;2023-07-31T07:41:45;20.15;;;3.22;;
47009;SDS011;59230;54.164;-3.124;2023-07-31T07:44:11;14.77;;;3.03;;
47009;SDS011;59230;54.164;-3.124;2023-07-31T07:46:36;21.80;;;3.40;;
47009;SDS011;59230;54.164;-3.124;2023-07-31T07:49:02;22.65;;;3.65;;
47009;SDS011;59230;54.164;-3.124;2023-07-31T07:51:27;21.13;;;3.78;;
47009;SDS011;59230;54.164;-3.124;2023-07-31T07:53:55;18.98;;;4.10;;
47009;SDS011;59230;54.164;-3.124;2023-07-31T07:56:20;20.60;;;3.95;;
47009;SDS011;59230;54.164;-3.124;2023-07-31T07:58:48;17.05;;;3.72;;
47009;SDS011;59230;54.164;-3.124;2023-07-31T08:01:14;30.30;;;4.85;;
47009;SDS011;59230;54.164;-3.124;2023-07-31T08:03:39;16.48;;;3.67;;
47009;SDS011;59230;54.164;-3.124;2023-07-31T08:06:05;19.98;;;4.38;;
47009;SDS011;59230;54.164;-3.124;2023-07-31T08:08:30;25.50;;;5.10;;
47009;SDS011;59230;54.164;-3.124;2023-07-31T08:10:55;36.10;;;5.57;;
47009;SDS011;59230;54.164;-3.124;2023-07-31T08:13:21;24.63;;;4.97;;
47009;SDS011;59230;54.164;-3.124;2023-07-31T08:15:46;28.65;;;4.82;;
47009;SDS011;59230;54.164;-3.124;2023-07-31T08:18:12;28.42;;;5.10;;
47009;SDS011;59230;54.164;-3.124;2023-07-31T08:20:37;26.92;;;4.25;;
47009;SDS011;59230;54.164;-3.124;2023-07-31T08:23:03;21.88;;;4.97;;
47009;SDS011;59230;54.164;-3.124;2023-07-31T08:25:29;25.98;;;5.43;;
47009;SDS011;59230;54.164;-3.124;2023-07-31T08:27:54;29.05;;;5.40;;
47009;SDS011;59230;54.164;-3.124;2023-07-31T08:30:20;38.78;;;6.55;;
47009;SDS011;59230;54.164;-3.124;2023-07-31T08:32:46;37.80;;;6.78;;
47009;SDS011;59230;54.164;-3.124;2023-07-31T08:35:11;30.35;;;5.63;;
47009;SDS011;59230;54.164;-3.124;2023-07-31T08:37:37;32.65;;;6.03;;
47009;SDS011;59230;54.164;-3.124;2023-07-31T08:40:03;36.40;;;6.43;;
47009;SDS011;59230;54.164;-3.124;2023-07-31T08:42:29;33.33;;;6.88;;
47009;SDS011;59230;54.164;-3.124;2023-07-31T08:44:55;44.22;;;6.88;;
47009;SDS011;59230;54.164;-3.124;2023-07-31T08:47:20;40.00;;;6.45;;
47009;SDS011;59230;54.164;-3.124;2023-07-31T08:49:47;31.13;;;6.05;;
47009;SDS011;59230;54.164;-3.124;2023-07-31T08:52:12;33.22;;;6.03;;
47009;SDS011;59230;54.164;-3.124;2023-07-31T08:54:38;43.42;;;5.57;;
47009;SDS011;59230;54.164;-3.124;2023-07-31T08:57:04;39.78;;;6.20;;
47009;SDS011;59230;54.164;-3.124;2023-07-31T08:59:31;31.27;;;6.32;;
47009;SDS011;59230;54.164;-3.124;2023-07-31T09:01:57;36.78;;;5.88;;
47009;SDS011;59230;54.164;-3.124;2023-07-31T09:04:25;31.27;;;5.88;;
47009;SDS011;59230;54.164;-3.124;2023-07-31T09:06:51;31.65;;;5.05;;
47009;SDS011;59230;54.164;-3.124;2023-07-31T09:09:20;26.95;;;5.43;;
47009;SDS011;59230;54.164;-3.124;2023-07-31T09:11:46;44.35;;;6.05;;
47009;SDS011;59230;54.164;-3.124;2023-07-31T09:14:11;28.42;;;5.65;;
47009;SDS011;59230;54.164;-3.124;2023-07-31T09:16:51;26.20;;;5.30;;
47009;SDS011;59230;54.164;-3.124;2023-07-31T09:19:24;23.60;;;4.70;;
47009;SDS011;59230;54.164;-3.124;2023-07-31T09:21:54;28.45;;;4.95;;
47009;SDS011;59230;54.164;-3.124;2023-07-31T09:24:26;25.65;;;4.78;;
47009;SDS011;59230;54.164;-3.124;2023-07-31T09:26:56;25.85;;;4.43;;
47009;SDS011;59230;54.164;-3.124;2023-07-31T09:29:23;27.40;;;4.72;;
47009;SDS011;59230;54.164;-3.124;2023-07-31T09:31:50;26.10;;;4.72;;
47009;SDS011;59230;54.164;-3.124;2023-07-31T09:34:15;26.73;;;4.70;;
47009;SDS011;59230;54.164;-3.124;2023-07-31T09:36:42;24.33;;;4.68;;
47009;SDS011;59230;54.164;-3.124;2023-07-31T09:39:08;22.35;;;4.18;;
47009;SDS011;59230;54.164;-3.124;2023-07-31T09:41:38;27.65;;;4.18;;
47009;SDS011;59230;54.164;-3.124;2023-07-31T09:44:05;26.17;;;4.28;;
47009;SDS011;59230;54.164;-3.124;2023-07-31T09:46:30;27.83;;;4.68;;
47009;SDS011;59230;54.164;-3.124;2023-07-31T09:49:12;24.50;;;4.78;;
47009;SDS011;59230;54.164;-3.124;2023-07-31T09:51:39;22.80;;;4.63;;
47009;SDS011;59230;54.164;-3.124;2023-07-31T09:54:09;26.90;;;4.72;;
47009;SDS011;59230;54.164;-3.124;2023-07-31T09:56:42;23.90;;;4.00;;
47009;SDS011;59230;54.164;-3.124;2023-07-31T09:59:10;19.02;;;3.58;;
47009;SDS011;59230;54.164;-3.124;2023-07-31T10:01:40;23.42;;;3.85;;
47009;SDS011;59230;54.164;-3.124;2023-07-31T10:04:07;21.15;;;4.13;;
47009;SDS011;59230;54.164;-3.124;2023-07-31T10:06:34;20.38;;;3.60;;
47009;SDS011;59230;54.164;-3.124;2023-07-31T10:09:01;23.20;;;4.20;;
47009;SDS011;59230;54.164;-3.124;2023-07-31T10:11:28;20.33;;;4.00;;
47009;SDS011;59230;54.164;-3.124;2023-07-31T10:13:55;24.75;;;4.25;;
47009;SDS011;59230;54.164;-3.124;2023-07-31T10:16:22;21.10;;;4.00;;
47009;SDS011;59230;54.164;-3.124;2023-07-31T10:18:47;21.02;;;3.92;;
47009;SDS011;59230;54.164;-3.124;2023-07-31T10:21:13;20.85;;;3.80;;
47009;SDS011;59230;54.164;-3.124;2023-07-31T10:23:39;19.15;;;4.30;;
47009;SDS011;59230;54.164;-3.124;2023-07-31T10:26:05;16.63;;;3.35;;
47009;SDS011;59230;54.164;-3.124;2023-07-31T10:28:32;22.40;;;3.85;;
47009;SDS011;59230;54.164;-3.124;2023-07-31T10:30:58;13.82;;;3.50;;
47009;SDS011;59230;54.164;-3.124;2023-07-31T10:33:24;16.58;;;3.67;;
47009;SDS011;59230;54.164;-3.124;2023-07-31T10:35:49;21.55;;;3.33;;
47009;SDS011;59230;54.164;-3.124;2023-07-31T10:38:18;20.35;;;3.45;;
47009;SDS011;59230;54.164;-3.124;2023-07-31T10:40:44;23.38;;;3.55;;
47009;SDS011;59230;54.164;-3.124;2023-07-31T10:43:10;20.60;;;3.22;;
47009;SDS011;59230;54.164;-3.124;2023-07-31T10:45:49;17.20;;;3.20;;
47009;SDS011;59230;54.164;-3.124;2023-07-31T10:48:15;13.10;;;3.15;;
47009;SDS011;59230;54.164;-3.124;2023-07-31T10:50:48;17.20;;;3.47;;
47009;SDS011;59230;54.164;-3.124;2023-07-31T10:55:52;18.08;;;3.33;;
47009;SDS011;59230;54.164;-3.124;2023-07-31T10:58:20;16.42;;;3.22;;
47009;SDS011;59230;54.164;-3.124;2023-07-31T11:00:47;20.65;;;3.38;;
47009;SDS011;59230;54.164;-3.124;2023-07-31T11:03:13;20.17;;;3.35;;
47009;SDS011;59230;54.164;-3.124;2023-07-31T11:05:51;14.65;;;3.35;;
47009;SDS011;59230;54.164;-3.124;2023-07-31T11:08:25;13.98;;;3.05;;
47009;SDS011;59230;54.164;-3.124;2023-07-31T11:13:26;16.85;;;3.75;;
47009;SDS011;59230;54.164;-3.124;2023-07-31T11:15:51;18.63;;;3.30;;
47009;SDS011;59230;54.164;-3.124;2023-07-31T11:18:17;17.05;;;3.40;;
47009;SDS011;59230;54.164;-3.124;2023-07-31T11:20:43;12.77;;;3.47;;
47009;SDS011;59230;54.164;-3.124;2023-07-31T11:23:09;11.77;;;3.15;;
47009;SDS011;59230;54.164;-3.124;2023-07-31T11:25:35;14.93;;;3.30;;
47009;SDS011;59230;54.164;-3.124;2023-07-31T11:28:03;15.05;;;3.90;;
47009;SDS011;59230;54.164;-3.124;2023-07-31T11:30:31;23.77;;;3.53;;
47009;SDS011;59230;54.164;-3.124;2023-07-31T11:33:01;16.35;;;3.58;;
47009;SDS011;59230;54.164;-3.124;2023-07-31T11:35:28;12.73;;;3.28;;
47009;SDS011;59230;54.164;-3.124;2023-07-31T11:37:57;18.77;;;3.80;;
47009;SDS011;59230;54.164;-3.124;2023-07-31T11:40:22;17.73;;;3.53;;
47009;SDS011;59230;54.164;-3.124;2023-07-31T11:42:53;21.88;;;4.45;;
47009;SDS011;59230;54.164;-3.124;2023-07-31T11:45:20;15.45;;;3.22;;
47009;SDS011;59230;54.164;-3.124;2023-07-31T11:47:45;14.07;;;3.55;;
47009;SDS011;59230;54.164;-3.124;2023-07-31T11:50:11;26.95;;;4.22;;
47009;SDS011;59230;54.164;-3.124;2023-07-31T11:52:38;17.05;;;4.07;;
47009;SDS011;59230;54.164;-3.124;2023-07-31T11:55:06;21.17;;;3.70;;
47009;SDS011;59230;54.164;-3.124;2023-07-31T11:57:34;18.30;;;3.70;;
47009;SDS011;59230;54.164;-3.124;2023-07-31T12:00:02;18.70;;;3.72;;
47009;SDS011;59230;54.164;-3.124;2023-07-31T12:02:28;12.38;;;2.92;;
47009;SDS011;59230;54.164;-3.124;2023-07-31T12:04:54;18.05;;;3.05;;
47009;SDS011;59230;54.164;-3.124;2023-07-31T12:07:19;16.25;;;3.30;;
47009;SDS011;59230;54.164;-3.124;2023-07-31T12:09:52;13.18;;;3.17;;
47009;SDS011;59230;54.164;-3.124;2023-07-31T12:12:21;16.13;;;3.10;;
47009;SDS011;59230;54.164;-3.124;2023-07-31T12:14:48;14.48;;;3.15;;
47009;SDS011;59230;54.164;-3.124;2023-07-31T12:17:13;20.63;;;4.05;;
47009;SDS011;59230;54.164;-3.124;2023-07-31T12:19:39;20.23;;;3.15;;
47009;SDS011;59230;54.164;-3.124;2023-07-31T12:22:11;16.42;;;3.08;;
47009;SDS011;59230;54.164;-3.124;2023-07-31T12:24:38;17.67;;;3.05;;
47009;SDS011;59230;54.164;-3.124;2023-07-31T12:27:12;13.98;;;2.60;;
47009;SDS011;59230;54.164;-3.124;2023-07-31T12:29:41;16.85;;;3.33;;
47009;SDS011;59230;54.164;-3.124;2023-07-31T12:35:06;15.45;;;2.97;;
47009;SDS011;59230;54.164;-3.124;2023-07-31T12:37:32;14.95;;;3.45;;
47009;SDS011;59230;54.164;-3.124;2023-07-31T12:39:58;21.25;;;3.05;;
47009;SDS011;59230;54.164;-3.124;2023-07-31T12:42:30;19.17;;;3.58;;
47009;SDS011;59230;54.164;-3.124;2023-07-31T12:44:56;20.60;;;3.80;;
47009;SDS011;59230;54.164;-3.124;2023-07-31T12:47:21;21.88;;;3.72;;
47009;SDS011;59230;54.164;-3.124;2023-07-31T12:49:46;21.35;;;3.83;;
47009;SDS011;59230;54.164;-3.124;2023-07-31T12:52:12;21.77;;;3.58;;
47009;SDS011;59230;54.164;-3.124;2023-07-31T12:54:37;26.08;;;3.67;;
47009;SDS011;59230;54.164;-3.124;2023-07-31T12:57:03;24.70;;;3.72;;
47009;SDS011;59230;54.164;-3.124;2023-07-31T12:59:29;23.48;;;3.70;;
47009;SDS011;59230;54.164;-3.124;2023-07-31T13:01:54;22.80;;;3.60;;
47009;SDS011;59230;54.164;-3.124;2023-07-31T13:04:20;28.63;;;4.43;;
47009;SDS011;59230;54.164;-3.124;2023-07-31T13:06:46;17.48;;;3.42;;
47009;SDS011;59230;54.164;-3.124;2023-07-31T13:09:12;25.55;;;3.70;;
47009;SDS011;59230;54.164;-3.124;2023-07-31T13:11:37;18.42;;;3.65;;
47009;SDS011;59230;54.164;-3.124;2023-07-31T13:14:03;26.52;;;4.78;;
47009;SDS011;59230;54.164;-3.124;2023-07-31T13:16:28;23.70;;;4.43;;
47009;SDS011;59230;54.164;-3.124;2023-07-31T13:18:53;24.42;;;3.65;;
47009;SDS011;59230;54.164;-3.124;2023-07-31T13:21:19;23.67;;;3.90;;
47009;SDS011;59230;54.164;-3.124;2023-07-31T13:23:46;22.08;;;3.45;;
47009;SDS011;59230;54.164;-3.124;2023-07-31T13:26:12;23.27;;;4.10;;
47009;SDS011;59230;54.164;-3.124;2023-07-31T13:28:37;22.80;;;4.32;;
47009;SDS011;59230;54.164;-3.124;2023-07-31T13:31:02;25.80;;;4.25;;
47009;SDS011;59230;54.164;-3.124;2023-07-31T13:33:28;21.40;;;3.78;;
47009;SDS011;59230;54.164;-3.124;2023-07-31T13:35:53;23.77;;;3.40;;
47009;SDS011;59230;54.164;-3.124;2023-07-31T13:38:18;29.42;;;4.53;;
47009;SDS011;59230;54.164;-3.124;2023-07-31T13:40:44;27.13;;;4.20;;
47009;SDS011;59230;54.164;-3.124;2023-07-31T13:43:09;22.58;;;4.28;;
47009;SDS011;59230;54.164;-3.124;2023-07-31T13:45:35;28.27;;;4.95;;
47009;SDS011;59230;54.164;-3.124;2023-07-31T13:48:00;22.00;;;4.32;;
47009;SDS011;59230;54.164;-3.124;2023-07-31T13:50:25;30.42;;;4.80;;
47009;SDS011;59230;54.164;-3.124;2023-07-31T13:52:51;31.00;;;4.35;;
47009;SDS011;59230;54.164;-3.124;2023-07-31T13:55:16;37.00;;;4.40;;
47009;SDS011;59230;54.164;-3.124;2023-07-31T13:57:42;34.50;;;4.60;;
47009;SDS011;59230;54.164;-3.124;2023-07-31T14:00:08;27.45;;;4.63;;
47009;SDS011;59230;54.164;-3.124;2023-07-31T14:02:34;28.88;;;4.35;;
47009;SDS011;59230;54.164;-3.124;2023-07-31T14:04:59;24.85;;;3.75;;
47009;SDS011;59230;54.164;-3.124;2023-07-31T14:07:25;23.67;;;3.83;;
47009;SDS011;59230;54.164;-3.124;2023-07-31T14:09:50;28.33;;;5.10;;
47009;SDS011;59230;54.164;-3.124;2023-07-31T14:12:15;26.88;;;4.28;;
47009;SDS011;59230;54.164;-3.124;2023-07-31T14:14:41;24.05;;;4.05;;
47009;SDS011;59230;54.164;-3.124;2023-07-31T14:17:06;33.92;;;4.88;;
47009;SDS011;59230;54.164;-3.124;2023-07-31T14:19:32;27.92;;;4.55;;
47009;SDS011;59230;54.164;-3.124;2023-07-31T14:22:00;26.10;;;4.72;;
47009;SDS011;59230;54.164;-3.124;2023-07-31T14:24:25;34.15;;;4.68;;
47009;SDS011;59230;54.164;-3.124;2023-07-31T14:26:51;26.40;;;3.83;;
47009;SDS011;59230;54.164;-3.124;2023-07-31T14:29:16;31.50;;;5.25;;
47009;SDS011;59230;54.164;-3.124;2023-07-31T14:31:42;31.35;;;4.75;;